Time;durP1;ratioP1;P1;durP2;ratioP2;P2;SDS_P1;SDS_P2;PMS_P1;PMS_P2;Temp;Humidity;BMP_temperature;BMP_pressure;BME280_temperature;BME280_humidity;BME280_pressure;Samples;Min_cycle;Max_cycle;Signal;HPM_P1;HPM_P2
2021/12/31 00:02:00;;;;;;;1.80;1.70;;;;;;;8.94;100.00;101086.09;4954854;28;20207;-79
2021/12/31 00:04:25;;;;;;;1.30;1.30;;;;;;;8.97;100.00;101080.69;4952890;28;20571;-79
2021/12/31 00:06:50;;;;;;;2.47;1.10;;;;;;;8.97;100.00;101086.03;4954000;28;20168;-79
2021/12/31 00:09:16;;;;;;;1.25;1.15;;;;;;;8.97;100.00;101085.16;4954277;28;20183;-79
2021/12/31 00:11:41;;;;;;;1.10;0.90;;;;;;;8.99;100.00;101077.97;4952690;28;20197;-79
2021/12/31 00:14:07;;;;;;;0.70;0.70;;;;;;;8.99;100.00;101083.31;4953243;29;20171;-79
2021/12/31 00:16:33;;;;;;;0.80;0.77;;;;;;;9.05;100.00;101075.13;4954794;28;20163;-79
2021/12/31 00:18:58;;;;;;;0.82;0.70;;;;;;;9.00;100.00;101075.25;4955065;28;20882;-79
2021/12/31 00:21:23;;;;;;;0.98;0.50;;;;;;;8.95;100.00;101066.50;4954633;28;20205;-79
2021/12/31 00:23:50;;;;;;;0.70;0.60;;;;;;;9.04;100.00;101066.22;4959638;28;20227;-79
2021/12/31 00:26:15;;;;;;;0.60;0.60;;;;;;;9.04;100.00;101065.34;4960613;28;20170;-79
2021/12/31 00:28:41;;;;;;;0.73;0.65;;;;;;;9.01;100.00;101069.00;4959683;28;20189;-79
2021/12/31 00:31:06;;;;;;;1.60;0.50;;;;;;;9.02;100.00;101067.19;4960588;28;20202;-79
2021/12/31 00:33:32;;;;;;;1.35;0.45;;;;;;;8.99;100.00;101076.19;4959633;28;20169;-80
2021/12/31 00:35:57;;;;;;;0.50;0.50;;;;;;;9.03;100.00;101072.50;4958429;29;20183;-79
2021/12/31 00:38:22;;;;;;;0.30;0.30;;;;;;;9.06;100.00;101061.72;4959714;28;20171;-80
2021/12/31 00:40:48;;;;;;;2.05;0.50;;;;;;;9.11;100.00;101074.94;4959814;28;20234;-79
2021/12/31 00:43:13;;;;;;;0.50;0.50;;;;;;;9.15;100.00;101065.06;4961356;28;20288;-79
2021/12/31 00:45:41;;;;;;;0.38;0.38;;;;;;;9.07;100.00;101068.84;4964131;28;20659;-79
2021/12/31 00:48:09;;;;;;;0.47;0.40;;;;;;;9.06;100.00;101069.72;4964200;29;20206;-79
2021/12/31 00:50:35;;;;;;;0.30;0.30;;;;;;;9.05;100.00;101073.34;4965582;28;20262;-79
2021/12/31 00:53:00;;;;;;;0.45;0.45;;;;;;;9.07;100.00;101065.25;4963856;28;20190;-79
2021/12/31 00:55:26;;;;;;;1.08;0.40;;;;;;;9.04;100.00;101074.25;4961836;29;20178;-79
2021/12/31 00:57:51;;;;;;;0.50;0.50;;;;;;;9.12;100.00;101074.03;4959911;29;20628;-79
2021/12/31 01:00:17;;;;;;;1.08;0.43;;;;;;;9.12;100.00;101083.84;4936764;29;20207;-80
2021/12/31 01:02:46;;;;;;;0.65;0.60;;;;;;;9.14;100.00;101079.31;4936612;29;20194;-83
2021/12/31 01:05:12;;;;;;;0.63;0.40;;;;;;;9.14;100.00;101082.91;4934763;29;20176;-81
2021/12/31 01:07:38;;;;;;;0.30;0.30;;;;;;;9.14;100.00;101088.25;4966917;28;20214;-80
2021/12/31 01:10:04;;;;;;;1.15;0.40;;;;;;;9.15;100.00;101081.09;4938425;29;20649;-80
2021/12/31 01:12:30;;;;;;;0.30;0.30;;;;;;;9.22;100.00;101074.63;4940840;29;20258;-79
2021/12/31 01:15:00;;;;;;;1.27;0.70;;;;;;;9.15;100.00;101081.09;4941602;29;20263;-79
2021/12/31 01:20:11;;;;;;;1.13;0.60;;;;;;;9.17;100.00;101090.81;4942754;29;20544;-79
2021/12/31 01:22:37;;;;;;;2.60;0.70;;;;;;;9.19;100.00;101090.78;4942843;29;20287;-79
2021/12/31 01:25:04;;;;;;;0.57;0.57;;;;;;;9.24;100.00;101084.38;4942591;29;20274;-79
2021/12/31 01:27:30;;;;;;;0.88;0.77;;;;;;;9.30;100.00;101094.03;4940586;29;20274;-79
2021/12/31 01:29:56;;;;;;;1.88;0.80;;;;;;;9.24;100.00;101081.69;4943400;29;20170;-79
2021/12/31 01:32:22;;;;;;;2.08;0.90;;;;;;;9.27;100.00;101153.81;4943954;29;20563;-79
2021/12/31 01:34:48;;;;;;;2.15;0.90;;;;;;;9.27;100.00;101129.75;4923681;29;20191;-80
2021/12/31 01:37:13;;;;;;;1.90;1.13;;;;;;;9.28;100.00;101118.13;4938528;29;20207;-80
2021/12/31 01:39:38;;;;;;;5.13;1.42;;;;;;;9.29;100.00;101113.63;4940126;29;20286;-80
2021/12/31 01:42:08;;;;;;;2.92;1.50;;;;;;;9.34;100.00;101118.88;4939544;29;20298;-80
2021/12/31 01:44:37;;;;;;;3.85;1.60;;;;;;;9.36;100.00;101109.00;4937914;29;20254;-80
2021/12/31 01:47:11;;;;;;;6.82;1.98;;;;;;;9.33;100.00;101111.78;4969873;28;20596;-80
2021/12/31 01:49:40;;;;;;;3.78;2.35;;;;;;;9.38;100.00;101118.75;4938240;29;20172;-80
2021/12/31 01:52:10;;;;;;;5.82;2.78;;;;;;;9.47;100.00;101113.13;4939482;29;20208;-80
2021/12/31 01:54:38;;;;;;;6.68;3.42;;;;;;;9.54;100.00;101102.25;4938989;29;20160;-80
2021/12/31 01:57:08;;;;;;;4.63;3.08;;;;;;;9.46;100.00;101106.00;4936734;29;20226;-80
2021/12/31 01:59:36;;;;;;;9.70;4.10;;;;;;;9.46;100.00;101119.38;4953517;29;20674;-80
2021/12/31 02:02:04;;;;;;;8.50;4.28;;;;;;;9.49;100.00;101113.97;4986460;28;20199;-80
2021/12/31 02:04:31;;;;;;;8.48;4.18;;;;;;;9.59;100.00;101108.34;4953908;29;20186;-81
2021/12/31 02:06:58;;;;;;;14.48;5.07;;;;;;;9.59;100.00;101113.69;4938442;28;20194;-80
2021/12/31 02:09:24;;;;;;;10.18;4.55;;;;;;;9.59;100.00;101116.38;4962073;28;20174;-79
2021/12/31 02:11:53;;;;;;;8.32;3.35;;;;;;;9.68;100.00;101164.25;4963970;28;20194;-80
2021/12/31 02:14:19;;;;;;;9.30;3.60;;;;;;;9.62;100.00;101121.59;4965208;29;20187;-79
2021/12/31 02:16:45;;;;;;;6.60;3.20;;;;;;;9.68;100.00;101105.38;4963933;29;20572;-79
2021/12/31 02:19:16;;;;;;;10.23;3.72;;;;;;;9.70;100.00;101112.44;4944699;28;20226;-81
2021/12/31 02:21:43;;;;;;;11.05;5.53;;;;;;;9.74;100.00;101113.22;4945654;28;20715;-81
2021/12/31 02:24:09;;;;;;;13.10;6.20;;;;;;;9.78;100.00;101100.66;4951411;28;20186;-81
2021/12/31 02:26:34;;;;;;;17.42;7.57;;;;;;;9.74;100.00;101110.56;4954463;28;20209;-81
2021/12/31 02:28:59;;;;;;;21.05;7.20;;;;;;;9.83;100.00;101104.91;4955133;28;20257;-80
2021/12/31 02:31:25;;;;;;;18.45;8.15;;;;;;;9.78;100.00;101093.50;4953643;28;20795;-80
2021/12/31 02:33:50;;;;;;;20.88;7.97;;;;;;;9.80;100.00;101107.69;4953535;28;20191;-81
2021/12/31 02:36:16;;;;;;;24.48;7.00;;;;;;;9.77;100.00;101091.72;4952498;29;20169;-80
2021/12/31 02:38:44;;;;;;;18.65;6.43;;;;;;;9.79;100.00;101097.91;4954122;29;20199;-81
2021/12/31 02:41:10;;;;;;;16.38;5.65;;;;;;;9.84;100.00;101095.97;4955958;28;20319;-80
2021/12/31 02:43:36;;;;;;;18.60;5.85;;;;;;;9.83;100.00;101093.34;4951610;28;20174;-81
2021/12/31 02:46:01;;;;;;;21.05;4.85;;;;;;;9.84;100.00;101097.78;4954677;28;20278;-81
2021/12/31 02:48:27;;;;;;;20.10;5.13;;;;;;;9.85;100.00;101094.16;4954532;29;20187;-80
2021/12/31 02:50:58;;;;;;;14.02;4.57;;;;;;;9.87;100.00;101090.53;4956462;28;20194;-80
2021/12/31 02:53:30;;;;;;;19.25;4.60;;;;;;;9.81;100.00;101081.81;4954276;29;20201;-80
2021/12/31 02:56:05;;;;;;;12.32;4.07;;;;;;;9.87;100.00;101079.81;4954318;28;20182;-80
2021/12/31 02:58:31;;;;;;;11.18;3.22;;;;;;;9.90;100.00;101074.38;4954716;29;20202;-80
2021/12/31 03:00:57;;;;;;;9.57;3.30;;;;;;;9.90;100.00;101078.84;4955469;28;20281;-80
2021/12/31 03:03:24;;;;;;;8.60;3.25;;;;;;;9.87;100.00;101058.41;4954266;29;20312;-80
2021/12/31 03:05:53;;;;;;;10.88;3.40;;;;;;;9.84;100.00;101049.63;4955515;28;20167;-80
2021/12/31 03:08:21;;;;;;;10.20;2.53;;;;;;;9.88;100.00;101038.75;4954215;29;20178;-80
2021/12/31 03:10:47;;;;;;;10.05;2.95;;;;;;;9.89;100.00;101045.84;4954255;28;20198;-80
2021/12/31 03:13:14;;;;;;;9.40;2.80;;;;;;;9.89;100.00;101056.56;4952973;29;20175;-80
2021/12/31 03:15:41;;;;;;;9.02;3.13;;;;;;;9.90;100.00;101061.00;4954747;28;20175;-81
2021/12/31 03:18:08;;;;;;;8.00;2.80;;;;;;;9.92;100.00;101058.25;4955044;28;20178;-79
2021/12/31 03:20:36;;;;;;;10.18;2.70;;;;;;;9.90;100.00;101074.38;4954092;28;20246;-79
2021/12/31 03:23:05;;;;;;;5.57;2.75;;;;;;;9.93;100.00;101073.41;4956290;28;20167;-79
2021/12/31 03:25:31;;;;;;;7.50;2.95;;;;;;;9.94;100.00;101072.47;4989994;28;20181;-79
2021/12/31 03:27:57;;;;;;;8.48;2.88;;;;;;;9.92;100.00;101070.75;4959723;28;20266;-79
2021/12/31 03:30:22;;;;;;;7.65;2.90;;;;;;;9.94;100.00;101071.59;4957369;28;20672;-79
2021/12/31 03:32:48;;;;;;;8.07;3.22;;;;;;;9.88;100.00;101073.56;4955820;28;20191;-79
2021/12/31 03:35:13;;;;;;;16.73;3.47;;;;;;;9.88;100.00;101084.25;4952206;29;20589;-80
2021/12/31 03:37:39;;;;;;;10.13;3.20;;;;;;;9.84;100.00;101068.34;4952479;28;20648;-79
2021/12/31 03:40:05;;;;;;;13.63;3.70;;;;;;;9.85;100.00;101072.75;4954224;28;20206;-80
2021/12/31 03:42:31;;;;;;;9.98;3.60;;;;;;;9.82;100.00;101096.97;4952877;29;20202;-79
2021/12/31 03:44:57;;;;;;;8.95;3.58;;;;;;;9.88;100.00;101053.91;4953831;28;20241;-80
2021/12/31 03:47:22;;;;;;;8.93;3.47;;;;;;;9.84;100.00;101085.28;4937224;28;20258;-79
2021/12/31 03:49:48;;;;;;;11.38;3.45;;;;;;;9.82;100.00;101071.06;4954025;28;20625;-80
2021/12/31 03:52:13;;;;;;;19.77;3.90;;;;;;;9.77;100.00;101067.63;4937214;28;20198;-81
2021/12/31 03:54:39;;;;;;;10.52;3.60;;;;;;;9.85;100.00;101070.09;4954632;28;20278;-79
2021/12/31 03:57:04;;;;;;;10.35;3.45;;;;;;;9.80;100.00;101085.41;4953029;28;20187;-80
2021/12/31 03:59:30;;;;;;;14.30;4.13;;;;;;;9.77;100.00;101083.69;4958424;28;20225;-79
2021/12/31 04:01:55;;;;;;;15.98;4.30;;;;;;;9.80;100.00;101078.25;4961405;29;20186;-78
2021/12/31 04:04:20;;;;;;;17.38;4.90;;;;;;;9.79;100.00;101071.13;4963992;28;20225;-80
2021/12/31 04:06:46;;;;;;;17.90;4.10;;;;;;;9.78;100.00;101074.75;4956591;28;20194;-79
2021/12/31 04:09:11;;;;;;;16.52;4.15;;;;;;;9.79;100.00;101076.50;4958074;28;20173;-79
2021/12/31 04:11:37;;;;;;;11.95;3.88;;;;;;;9.81;100.00;101085.34;4961252;28;20194;-79
2021/12/31 04:14:02;;;;;;;16.63;5.35;;;;;;;9.87;100.00;101060.22;4960352;28;20517;-78
2021/12/31 04:16:30;;;;;;;13.00;4.43;;;;;;;9.81;100.00;101084.47;4958043;28;20656;-79
2021/12/31 04:18:56;;;;;;;21.42;5.78;;;;;;;9.83;100.00;101070.13;4955602;28;20281;-79
2021/12/31 04:21:23;;;;;;;19.00;5.50;;;;;;;9.79;100.00;101067.59;4938804;29;20281;-80
2021/12/31 04:24:07;;;;;;;30.50;6.78;;;;;;;9.85;100.00;101072.75;4945018;29;20684;-80
2021/12/31 04:26:33;;;;;;;23.58;6.15;;;;;;;9.90;100.00;101068.13;4965795;28;20193;-80
2021/12/31 04:28:58;;;;;;;19.75;5.72;;;;;;;9.93;100.00;101078.75;4974616;28;20628;-79
2021/12/31 04:31:23;;;;;;;19.83;5.25;;;;;;;9.88;100.00;101067.31;4957360;28;20293;-79
2021/12/31 04:33:49;;;;;;;16.45;5.32;;;;;;;9.91;100.00;101080.59;4957771;28;20244;-79
2021/12/31 04:36:15;;;;;;;19.73;5.65;;;;;;;9.89;100.00;101117.25;4954864;28;20242;-79
2021/12/31 04:38:40;;;;;;;19.40;5.40;;;;;;;9.93;100.00;101104.63;4953839;29;20269;-79
2021/12/31 04:41:06;;;;;;;25.08;5.13;;;;;;;9.88;100.00;101086.94;4954767;28;20214;-79
2021/12/31 04:43:31;;;;;;;16.95;5.38;;;;;;;9.86;100.00;101101.25;4956009;28;20246;-78
2021/12/31 04:45:57;;;;;;;22.38;4.72;;;;;;;9.85;100.00;101111.09;4940227;29;20556;-79
2021/12/31 04:48:22;;;;;;;19.23;4.78;;;;;;;9.90;100.00;101127.00;4955071;28;20198;-79
2021/12/31 04:50:48;;;;;;;19.73;5.10;;;;;;;9.93;100.00;101126.03;4955664;28;20203;-79
2021/12/31 04:53:13;;;;;;;16.63;5.18;;;;;;;9.93;100.00;101112.66;4954617;28;20178;-80
2021/12/31 04:55:39;;;;;;;17.20;4.70;;;;;;;9.88;100.00;101121.72;4937749;29;20205;-79
2021/12/31 04:58:04;;;;;;;21.48;5.35;;;;;;;9.90;100.00;101119.88;4954138;28;20191;-80
2021/12/31 05:00:30;;;;;;;20.55;4.85;;;;;;;9.95;100.00;101103.69;4954509;28;20206;-79
2021/12/31 05:02:55;;;;;;;20.17;4.40;;;;;;;10.05;100.00;101109.59;4953702;28;20643;-78
2021/12/31 05:05:21;;;;;;;16.83;4.38;;;;;;;10.02;100.00;101113.25;4957304;28;20190;-79
2021/12/31 05:07:46;;;;;;;19.27;4.65;;;;;;;10.02;100.00;101110.59;4957860;28;20177;-78
2021/12/31 05:10:12;;;;;;;14.90;3.97;;;;;;;9.99;100.00;101096.41;4940795;29;20174;-79
2021/12/31 05:12:38;;;;;;;18.48;4.00;;;;;;;9.92;100.00;101092.19;4956639;29;20190;-80
2021/12/31 05:15:09;;;;;;;20.77;3.92;;;;;;;9.96;100.00;101089.34;4956147;28;20167;-79
2021/12/31 05:17:36;;;;;;;15.23;4.00;;;;;;;9.95;100.00;101086.72;4953549;29;20179;-78
2021/12/31 05:20:04;;;;;;;17.85;4.30;;;;;;;9.95;100.00;101097.41;4956371;29;20218;-78
2021/12/31 05:22:29;;;;;;;14.48;3.92;;;;;;;9.93;100.00;101088.56;4956203;28;20166;-78
2021/12/31 05:24:55;;;;;;;17.13;4.40;;;;;;;9.86;100.00;101086.09;4956962;28;20202;-78
2021/12/31 05:27:20;;;;;;;17.95;4.78;;;;;;;9.95;100.00;101067.97;4957271;28;20186;-79
2021/12/31 05:29:46;;;;;;;19.00;4.43;;;;;;;9.92;100.00;101065.41;4957071;28;20718;-79
2021/12/31 05:32:11;;;;;;;14.68;4.65;;;;;;;9.92;100.00;101060.94;4956801;29;20699;-79
2021/12/31 05:34:36;;;;;;;22.42;4.80;;;;;;;9.92;100.00;101076.13;4955478;28;20177;-79
2021/12/31 05:37:02;;;;;;;19.38;5.10;;;;;;;9.90;100.00;101074.38;4954776;29;20188;-79
2021/12/31 05:39:28;;;;;;;22.77;4.57;;;;;;;9.92;100.00;101077.00;4955588;28;20202;-79
2021/12/31 05:41:54;;;;;;;14.73;4.65;;;;;;;9.90;100.00;101074.38;4938220;29;20724;-80
2021/12/31 05:44:20;;;;;;;21.55;5.20;;;;;;;9.93;100.00;101081.44;4936113;29;20763;-76
2021/12/31 05:46:48;;;;;;;19.52;5.63;;;;;;;9.93;100.00;101083.22;4952978;29;20210;-76
2021/12/31 05:49:14;;;;;;;25.08;5.63;;;;;;;9.95;100.00;101081.38;4953579;28;20692;-76
2021/12/31 05:51:40;;;;;;;19.90;4.70;;;;;;;9.99;100.00;101072.31;4951909;28;20314;-76
2021/12/31 05:54:05;;;;;;;22.35;4.80;;;;;;;10.07;100.00;101081.00;4953503;28;20683;-76
2021/12/31 05:56:30;;;;;;;18.33;4.68;;;;;;;10.03;100.00;101071.28;4953034;28;20166;-76
2021/12/31 05:58:56;;;;;;;17.45;4.25;;;;;;;10.02;100.00;101080.28;4941663;28;20306;-78
2021/12/31 06:01:21;;;;;;;20.33;4.75;;;;;;;10.04;100.00;101071.25;4965083;28;20306;-79
2021/12/31 06:03:46;;;;;;;19.05;4.53;;;;;;;10.04;100.00;101075.75;4935805;29;20557;-79
2021/12/31 06:06:12;;;;;;;18.38;4.60;;;;;;;10.06;100.00;101064.06;4933442;29;20175;-80
2021/12/31 06:08:37;;;;;;;13.95;4.20;;;;;;;10.08;100.00;101070.25;4944876;23;20176;-80
2021/12/31 06:11:03;;;;;;;13.73;4.88;;;;;;;10.02;100.00;101069.56;4990352;28;20192;-79
2021/12/31 06:13:29;;;;;;;12.13;4.30;;;;;;;10.07;100.00;101057.75;5008759;28;20629;-80
2021/12/31 06:15:57;;;;;;;20.15;5.35;;;;;;;10.06;100.00;101056.03;5010515;28;20617;-80
2021/12/31 06:18:25;;;;;;;16.48;4.63;;;;;;;10.05;100.00;101045.34;5011151;28;20211;-78
2021/12/31 06:20:51;;;;;;;20.92;6.43;;;;;;;9.99;100.00;101042.88;5017055;28;20219;-78
2021/12/31 06:23:16;;;;;;;21.33;5.57;;;;;;;9.97;100.00;101050.06;5019126;28;20230;-78
2021/12/31 06:25:43;;;;;;;17.83;5.35;;;;;;;10.02;100.00;101062.41;5010256;28;20652;-78
2021/12/31 06:28:09;;;;;;;22.67;6.03;;;;;;;10.04;100.00;101043.63;5009824;28;20188;-78
2021/12/31 06:30:34;;;;;;;19.20;5.13;;;;;;;10.08;100.00;101053.31;5019109;28;20195;-78
2021/12/31 06:33:00;;;;;;;19.83;5.22;;;;;;;10.10;100.00;101062.13;5019274;28;20534;-79
2021/12/31 06:35:26;;;;;;;15.63;5.22;;;;;;;10.07;100.00;101056.88;5015176;28;20201;-79
2021/12/31 06:37:52;;;;;;;15.70;4.80;;;;;;;10.13;100.00;101043.31;4980334;28;20184;-79
2021/12/31 06:40:18;;;;;;;16.67;5.25;;;;;;;10.10;100.00;101048.75;4974682;28;20213;-79
2021/12/31 06:42:43;;;;;;;13.88;4.03;;;;;;;10.16;100.00;101053.91;4976641;28;20170;-78
2021/12/31 06:45:09;;;;;;;14.27;4.40;;;;;;;10.20;100.00;101044.84;4978838;28;20190;-79
2021/12/31 06:47:35;;;;;;;17.92;4.65;;;;;;;10.13;100.00;101043.31;4984715;28;20178;-79
2021/12/31 06:50:00;;;;;;;14.45;4.72;;;;;;;10.16;100.00;101056.59;4983640;28;20206;-78
2021/12/31 06:52:26;;;;;;;16.60;5.18;;;;;;;10.11;100.00;101042.47;4968656;28;20606;-79
2021/12/31 06:54:52;;;;;;;16.58;5.45;;;;;;;10.13;100.00;101042.44;4983752;28;20162;-79
2021/12/31 06:57:17;;;;;;;20.67;5.47;;;;;;;10.16;100.00;101050.34;4983965;28;20214;-79
2021/12/31 06:59:43;;;;;;;20.95;5.07;;;;;;;10.15;100.00;101076.25;4978059;28;20741;-80
2021/12/31 07:02:08;;;;;;;17.13;4.82;;;;;;;10.16;100.00;101045.88;4974669;28;20697;-80
2021/12/31 07:04:34;;;;;;;16.10;4.43;;;;;;;10.16;100.00;101032.50;4977811;28;20166;-79
2021/12/31 07:06:59;;;;;;;19.30;5.47;;;;;;;10.18;100.00;101051.19;4982274;28;20241;-78
2021/12/31 07:09:24;;;;;;;16.80;4.60;;;;;;;10.21;100.00;101040.38;4983482;28;20189;-79
2021/12/31 07:11:50;;;;;;;24.52;5.80;;;;;;;10.16;100.00;101042.31;4979520;28;20312;-79
2021/12/31 07:14:15;;;;;;;13.85;4.78;;;;;;;10.13;100.00;101029.94;5031464;28;20186;-78
2021/12/31 07:16:41;;;;;;;16.15;4.65;;;;;;;10.14;100.00;101057.56;5021701;28;20188;-78
2021/12/31 07:19:06;;;;;;;17.13;4.88;;;;;;;10.18;100.00;101056.53;5019652;28;20228;-79
2021/12/31 07:21:32;;;;;;;16.52;4.65;;;;;;;10.18;100.00;101049.38;5020931;28;20193;-79
2021/12/31 07:23:57;;;;;;;17.27;4.95;;;;;;;10.19;100.00;101058.28;4987011;28;20194;-79
2021/12/31 07:26:22;;;;;;;18.58;4.60;;;;;;;10.19;100.00;101059.19;4983024;28;20217;-79
2021/12/31 07:28:48;;;;;;;17.08;4.38;;;;;;;10.14;100.00;101050.41;4983076;28;20196;-79
2021/12/31 07:31:14;;;;;;;16.38;4.35;;;;;;;10.12;100.00;101049.56;4984006;28;20198;-79
2021/12/31 07:33:40;;;;;;;17.35;4.60;;;;;;;10.11;100.00;101050.50;4991477;28;20246;-79
2021/12/31 07:36:06;;;;;;;14.65;3.80;;;;;;;10.07;100.00;101059.56;5007274;28;20193;-79
2021/12/31 07:38:34;;;;;;;12.38;3.88;;;;;;;10.10;100.00;101049.66;4995249;28;20594;-78
2021/12/31 07:41:00;;;;;;;12.43;3.90;;;;;;;10.07;100.00;101060.44;5006608;28;20205;-80
2021/12/31 07:43:26;;;;;;;9.30;3.83;;;;;;;10.10;100.00;101065.72;5006043;28;20197;-78
2021/12/31 07:45:54;;;;;;;13.13;4.07;;;;;;;10.06;100.00;101048.00;5002643;28;20173;-81
2021/12/31 07:48:21;;;;;;;13.55;4.10;;;;;;;10.11;100.00;101059.41;4995913;28;20247;-79
2021/12/31 07:50:47;;;;;;;16.63;5.25;;;;;;;10.11;100.00;101056.75;4996158;28;20668;-79
2021/12/31 07:53:14;;;;;;;10.85;4.60;;;;;;;10.13;100.00;101050.47;4997681;28;20169;-80
2021/12/31 07:55:39;;;;;;;12.70;4.93;;;;;;;10.11;100.00;101045.16;4989792;28;20198;-80
2021/12/31 07:58:05;;;;;;;12.90;6.18;;;;;;;10.15;100.00;101038.78;4979541;28;20180;-80
2021/12/31 08:00:31;;;;;;;17.77;7.50;;;;;;;10.14;100.00;101041.50;4994225;28;20292;-79
2021/12/31 08:02:58;;;;;;;16.73;5.03;;;;;;;10.18;100.00;101060.09;4976251;28;20496;-80
2021/12/31 08:05:27;;;;;;;15.30;5.40;;;;;;;10.22;100.00;101043.00;4995270;28;20254;-81
2021/12/31 08:07:52;;;;;;;14.18;5.25;;;;;;;10.22;100.00;101043.00;4993060;28;20249;-80
2021/12/31 08:10:19;;;;;;;16.63;5.13;;;;;;;10.25;100.00;101045.56;4994709;28;20189;-79
2021/12/31 08:12:44;;;;;;;12.20;4.68;;;;;;;10.21;100.00;101046.63;4995222;28;20169;-80
2021/12/31 08:15:10;;;;;;;16.00;5.03;;;;;;;10.24;100.00;101041.16;4994368;28;20169;-79
2021/12/31 08:17:36;;;;;;;13.95;4.72;;;;;;;10.20;100.00;101039.50;5003036;28;20244;-79
2021/12/31 08:20:01;;;;;;;13.45;5.25;;;;;;;10.24;100.00;101048.31;5004611;28;20685;-79
2021/12/31 08:22:26;;;;;;;11.65;4.70;;;;;;;10.19;100.00;101051.16;4997388;28;20773;-78
2021/12/31 08:24:52;;;;;;;15.18;5.30;;;;;;;10.20;100.00;101050.22;4995135;28;20200;-79
2021/12/31 08:27:18;;;;;;;11.70;4.22;;;;;;;10.21;100.00;101053.75;4994431;28;20182;-80
2021/12/31 08:29:43;;;;;;;12.30;4.00;;;;;;;10.20;100.00;101057.38;4996104;28;20189;-79
2021/12/31 08:32:09;;;;;;;11.15;4.32;;;;;;;10.18;100.00;101046.69;5000810;28;20290;-80
2021/12/31 08:34:35;;;;;;;11.18;3.67;;;;;;;10.19;100.00;101052.94;5002133;28;20177;-79
2021/12/31 08:37:00;;;;;;;16.25;4.20;;;;;;;10.18;100.00;101045.84;5000262;28;20178;-79
2021/12/31 08:39:26;;;;;;;14.05;4.13;;;;;;;10.21;100.00;101065.38;4984362;28;20225;-78
2021/12/31 08:41:52;;;;;;;14.02;3.88;;;;;;;10.16;100.00;101051.22;4995766;28;20193;-80
2021/12/31 08:44:17;;;;;;;14.30;4.05;;;;;;;10.23;100.00;101052.81;4992993;28;20185;-81
2021/12/31 08:46:44;;;;;;;10.07;4.05;;;;;;;10.22;100.00;101045.69;4994565;28;20618;-79
2021/12/31 08:49:09;;;;;;;12.43;4.22;;;;;;;10.22;100.00;101044.81;4993440;28;20205;-79
2021/12/31 08:51:35;;;;;;;12.63;4.60;;;;;;;10.31;100.00;101049.88;4995618;28;20773;-80
2021/12/31 08:54:01;;;;;;;16.88;5.25;;;;;;;10.27;100.00;101033.00;4996152;28;20260;-79
2021/12/31 08:56:26;;;;;;;11.43;4.35;;;;;;;10.34;100.00;101052.44;4993587;28;20174;-79
2021/12/31 08:58:52;;;;;;;8.52;3.50;;;;;;;10.35;100.00;101048.84;4999748;28;20861;-79
2021/12/31 09:01:17;;;;;;;9.68;4.38;;;;;;;10.37;100.00;101032.75;4994436;28;20193;-78
2021/12/31 09:03:43;;;;;;;10.93;3.78;;;;;;;10.45;100.00;101049.41;4996574;28;20173;-79
2021/12/31 09:06:08;;;;;;;13.23;3.60;;;;;;;10.48;100.00;101054.69;5004497;28;20301;-78
2021/12/31 09:08:34;;;;;;;12.52;3.78;;;;;;;10.48;100.00;101049.31;5002645;28;20192;-80
2021/12/31 09:11:01;;;;;;;12.35;3.78;;;;;;;10.51;100.00;101043.84;4988617;28;20208;-79
2021/12/31 09:13:31;;;;;;;10.10;3.55;;;;;;;10.54;100.00;101158.97;4999553;28;20180;-77
2021/12/31 09:15:56;;;;;;;9.32;3.40;;;;;;;10.55;100.00;101041.94;4977376;28;20185;-80
2021/12/31 09:18:22;;;;;;;8.15;2.95;;;;;;;10.51;100.00;101050.06;4994281;28;20524;-81
2021/12/31 09:20:49;;;;;;;12.35;3.22;;;;;;;10.48;100.00;101042.16;4993554;28;20216;-79
2021/12/31 09:23:15;;;;;;;7.25;2.90;;;;;;;10.53;100.00;101050.03;4995048;28;20272;-78
2021/12/31 09:25:40;;;;;;;11.73;2.90;;;;;;;10.59;100.00;101041.78;4993774;28;20196;-78
2021/12/31 09:28:05;;;;;;;8.90;2.53;;;;;;;10.59;100.00;101057.84;4995418;28;20227;-78
2021/12/31 09:30:31;;;;;;;8.68;2.83;;;;;;;10.55;100.00;101047.31;4995326;28;20201;-79
2021/12/31 09:32:56;;;;;;;9.75;3.03;;;;;;;10.66;100.00;101055.84;4994283;28;20173;-80
2021/12/31 09:35:22;;;;;;;12.85;2.88;;;;;;;10.67;100.00;101045.06;4997785;28;20273;-78
2021/12/31 09:37:47;;;;;;;9.75;2.92;;;;;;;10.69;100.00;101061.97;5000235;28;20240;-79
2021/12/31 09:40:15;;;;;;;5.97;2.58;;;;;;;10.64;100.00;101055.88;4993767;28;20208;-79
2021/12/31 09:42:59;;;;;;;10.02;2.97;;;;;;;10.64;100.00;101042.47;4996070;28;20200;-78
2021/12/31 09:45:26;;;;;;;14.98;3.75;;;;;;;10.75;100.00;101068.91;4995134;28;20855;-80
2021/12/31 09:47:52;;;;;;;8.73;3.05;;;;;;;10.75;100.00;101052.81;4993519;28;20702;-80
2021/12/31 09:50:18;;;;;;;15.25;3.33;;;;;;;10.66;100.00;101059.38;4977017;28;20212;-80
2021/12/31 09:52:45;;;;;;;10.50;2.97;;;;;;;10.61;100.00;101061.38;4993727;28;20260;-78
2021/12/31 09:55:10;;;;;;;11.45;3.15;;;;;;;10.60;100.00;101053.38;4991603;28;20583;-78
2021/12/31 09:57:35;;;;;;;9.30;3.33;;;;;;;10.56;100.00;101065.13;4998518;28;20164;-79
2021/12/31 10:00:03;;;;;;;9.68;2.92;;;;;;;10.46;100.00;101067.25;4997780;28;20628;-79
2021/12/31 10:02:33;;;;;;;9.98;3.17;;;;;;;10.40;100.00;101043.34;4992922;28;20359;-77
2021/12/31 10:05:00;;;;;;;11.80;4.13;;;;;;;10.28;100.00;101058.88;4978475;28;20296;-79
2021/12/31 10:07:29;;;;;;;10.73;3.33;;;;;;;10.24;100.00;101048.31;4978110;28;20541;-79
2021/12/31 10:10:09;;;;;;;10.80;3.72;;;;;;;10.26;100.00;101039.28;4987311;28;20193;-77
2021/12/31 10:12:59;;;;;;;9.20;3.28;;;;;;;10.23;100.00;101059.94;4991933;28;20220;-79
2021/12/31 10:15:25;;;;;;;13.00;4.03;;;;;;;10.20;100.00;101052.00;4994758;28;20166;-79
2021/12/31 10:17:52;;;;;;;11.45;3.88;;;;;;;10.28;100.00;101055.31;4989695;28;20178;-79
2021/12/31 10:20:19;;;;;;;14.60;3.95;;;;;;;10.21;100.00;101054.66;4958528;28;20202;-79
2021/12/31 10:22:46;;;;;;;11.70;4.07;;;;;;;10.20;100.00;101038.63;4974715;28;20180;-79
2021/12/31 10:25:19;;;;;;;13.15;4.25;;;;;;;10.22;100.00;101039.44;4975496;28;20171;-79
2021/12/31 10:27:45;;;;;;;8.55;4.28;;;;;;;10.25;100.00;101048.25;4974246;28;20288;-79
2021/12/31 10:30:11;;;;;;;13.25;4.22;;;;;;;10.27;100.00;101026.78;4974998;28;20205;-78
2021/12/31 10:32:40;;;;;;;7.75;3.40;;;;;;;10.19;100.00;101020.78;4975805;28;20177;-79
2021/12/31 10:35:18;;;;;;;10.40;3.30;;;;;;;10.21;100.00;101035.91;4973662;28;20205;-79
2021/12/31 10:38:01;;;;;;;9.13;3.60;;;;;;;10.18;100.00;101027.09;4978944;28;20169;-78
2021/12/31 10:40:32;;;;;;;9.07;3.35;;;;;;;10.17;100.00;101033.38;4980787;28;20229;-78
2021/12/31 10:43:15;;;;;;;11.07;3.33;;;;;;;10.20;100.00;101023.44;4978596;28;20213;-80
2021/12/31 10:46:04;;;;;;;6.82;2.97;;;;;;;10.22;100.00;101026.94;4976707;28;20197;-78
2021/12/31 10:48:47;;;;;;;7.00;3.15;;;;;;;10.20;100.00;101022.56;4973859;28;20181;-77
2021/12/31 10:51:17;;;;;;;8.98;3.00;;;;;;;10.23;100.00;101035.84;4971593;28;20231;-78
2021/12/31 10:53:50;;;;;;;7.70;3.30;;;;;;;10.20;100.00;101033.28;4983670;28;20193;-77
2021/12/31 10:56:16;;;;;;;8.23;3.00;;;;;;;10.20;100.00;101130.53;4990591;28;20619;-79
2021/12/31 10:58:56;;;;;;;6.53;3.22;;;;;;;10.23;100.00;101094.75;4992568;28;20228;-79
2021/12/31 11:01:22;;;;;;;8.15;3.03;;;;;;;10.19;100.00;101083.28;4994507;28;20713;-80
2021/12/31 11:03:48;;;;;;;6.97;3.13;;;;;;;10.17;100.00;101108.34;4993019;28;20287;-78
2021/12/31 11:06:14;;;;;;;7.53;2.88;;;;;;;10.15;100.00;101105.72;4992681;28;20173;-78
2021/12/31 11:08:47;;;;;;;6.72;2.70;;;;;;;10.14;100.00;101093.25;4991341;28;20212;-80
2021/12/31 11:11:14;;;;;;;7.95;2.95;;;;;;;10.12;100.00;101087.06;5006212;28;20205;-80
2021/12/31 11:13:40;;;;;;;7.57;2.63;;;;;;;10.11;100.00;101091.53;4996401;28;20204;-78
2021/12/31 11:16:05;;;;;;;9.82;2.70;;;;;;;10.19;100.00;101096.66;4994281;28;20207;-79
2021/12/31 11:18:31;;;;;;;4.57;2.50;;;;;;;10.12;100.00;101103.13;4995124;28;20189;-80